createdAt,value
2023-03-29T00:02:42.900Z,96369.56
2023-03-29T00:07:45.992Z,96416.47
2023-03-29T00:12:49.058Z,96406.22
2023-03-29T00:17:51.687Z,96381.72
2023-03-29T00:22:54.189Z,96409.94
2023-03-29T00:27:56.541Z,96397.72
2023-03-29T00:32:58.980Z,96382.41
2023-03-29T00:38:01.470Z,96408.69
2023-03-29T00:43:03.791Z,96408.47
2023-03-29T00:48:11.607Z,96389.72
2023-03-29T00:53:18.104Z,96385.59
2023-03-29T00:58:33.134Z,96408.59
2023-03-29T01:03:46.789Z,96397.66
2023-03-29T01:08:57.481Z,96384.78
2023-03-29T01:14:04.717Z,96398.16
2023-03-29T01:19:10.961Z,96404.13
2023-03-29T01:24:22.616Z,96424.75
2023-03-29T01:29:33.029Z,96434.41
2023-03-29T01:34:46.540Z,96400.25
2023-03-29T01:39:48.972Z,96418.28
2023-03-29T01:45:02.946Z,96423.28
2023-03-29T01:50:14.954Z,96395.16
2023-03-29T01:55:22.822Z,96426.72
2023-03-29T02:00:28.256Z,96434.56
2023-03-29T02:05:32.037Z,96408.03
2023-03-29T02:10:37.059Z,96424.56
2023-03-29T02:15:40.149Z,96408.50
2023-03-29T02:20:50.116Z,96422.16
2023-03-29T02:25:57.241Z,96428.91
2023-03-29T02:31:10.416Z,96425.81
2023-03-29T02:36:27.815Z,96438.81
2023-03-29T02:41:30.871Z,96430.28
2023-03-29T02:46:35.028Z,96435.59
2023-03-29T02:51:38.910Z,96455.13
2023-03-29T02:57:00.215Z,96475.75
2023-03-29T03:02:03.673Z,96474.00
2023-03-29T03:07:06.391Z,96487.53
2023-03-29T03:12:09.454Z,96457.53
2023-03-29T03:17:11.759Z,96474.75
2023-03-29T03:22:15.524Z,96483.31
2023-03-29T03:27:18.565Z,96482.41
2023-03-29T03:32:21.478Z,96468.03
2023-03-29T03:37:42.536Z,96511.47
2023-03-29T03:42:45.368Z,96485.84
2023-03-29T03:47:48.369Z,96497.66
2023-03-29T03:53:13.205Z,96454.44
2023-03-29T03:58:36.848Z,96510.47
2023-03-29T04:03:39.891Z,96514.50
2023-03-29T04:08:45.803Z,96527.28
2023-03-29T04:13:55.738Z,96536.63
2023-03-29T04:19:16.983Z,96560.53
2023-03-29T04:24:20.933Z,96565.78
2023-03-29T04:29:45.153Z,96564.25
2023-03-29T04:34:56.980Z,96578.88
2023-03-29T04:40:04.431Z,96571.47
2023-03-29T04:45:19.014Z,96558.53
2023-03-29T04:50:40.576Z,96574.50
2023-03-29T04:55:43.801Z,96566.06
2023-03-29T05:00:50.378Z,96596.50
2023-03-29T05:06:08.087Z,96586.38
2023-03-29T05:11:12.457Z,96594.97
2023-03-29T05:16:16.177Z,96593.47
2023-03-29T05:21:19.454Z,96591.94
2023-03-29T05:26:23.295Z,96595.84
2023-03-29T05:31:29.480Z,96614.59
2023-03-29T05:36:32.648Z,96579.06
2023-03-29T05:41:35.110Z,96591.28
2023-03-29T05:47:02.423Z,96596.72
2023-03-29T05:52:04.775Z,96607.09
2023-03-29T05:57:08.684Z,96605.47
2023-03-29T06:02:15.187Z,96605.09
2023-03-29T06:07:23.760Z,96611.53
2023-03-29T06:12:55.817Z,96596.16
2023-03-29T06:18:00.612Z,96608.47
2023-03-29T06:23:03.114Z,96592.91
2023-03-29T06:28:06.290Z,96589.53
2023-03-29T06:49:46.068Z,96609.53
2023-03-29T06:55:12.343Z,96647.09
2023-03-29T07:00:19.811Z,96640.72
2023-03-29T07:05:52.451Z,96635.75
2023-03-29T07:10:56.456Z,96645.56
2023-03-29T07:16:19.689Z,96599.97
2023-03-29T07:21:34.860Z,96608.44
2023-03-29T07:26:40.526Z,96633.78
2023-03-29T07:31:49.269Z,96586.69
2023-03-29T07:37:11.921Z,96656.97
2023-03-29T07:42:17.199Z,96635.25
2023-03-29T07:47:20.265Z,96670.31
2023-03-29T07:52:22.962Z,96620.25
2023-03-29T07:57:27.318Z,96665.84
2023-03-29T08:02:32.348Z,96613.09
2023-03-29T08:07:38.110Z,96640.66
2023-03-29T08:13:09.947Z,96630.06
2023-03-29T08:18:38.972Z,96627.47
2023-03-29T08:23:42.446Z,96631.81
2023-03-29T08:28:52.536Z,96627.75
2023-03-29T08:33:57.645Z,96619.78
2023-03-29T08:39:22.939Z,96606.50
2023-03-29T08:45:00.327Z,96658.44
2023-03-29T08:50:04.387Z,96671.75
2023-03-29T08:55:41.842Z,96606.25
2023-03-29T09:01:06.399Z,96592.75
2023-03-29T09:06:22.377Z,96615.47
2023-03-29T09:11:46.321Z,96602.00
2023-03-29T09:17:04.167Z,96571.28
2023-03-29T09:22:25.089Z,96609.28
2023-03-29T09:27:33.719Z,96619.75
2023-03-29T09:32:54.714Z,96580.06
2023-03-29T09:38:06.231Z,96573.19
2023-03-29T09:43:16.331Z,96616.81
2023-03-29T09:48:21.178Z,96622.78
2023-03-29T09:53:48.045Z,96578.56
2023-03-29T09:59:07.691Z,96593.16
2023-03-29T10:04:11.652Z,96639.47
2023-03-29T10:09:27.732Z,96592.19
2023-03-29T10:14:50.354Z,96608.91
2023-03-29T10:20:04.500Z,96596.03
2023-03-29T10:25:14.593Z,96631.84
2023-03-29T10:30:25.752Z,96647.72
2023-03-29T10:35:38.550Z,96599.13
2023-03-29T10:40:47.544Z,96580.78
2023-03-29T10:45:52.950Z,96610.31
2023-03-29T10:50:59.709Z,96621.84
2023-03-29T10:56:08.869Z,96655.56
2023-03-29T11:01:21.399Z,96589.59
2023-03-29T11:06:37.277Z,96609.56
2023-03-29T11:12:24.583Z,96558.69
2023-03-29T11:17:58.870Z,96634.13
2023-03-29T11:23:26.870Z,96607.91
2023-03-29T11:28:53.391Z,96582.47
2023-03-29T11:34:20.539Z,96583.25
2023-03-29T11:39:52.159Z,96534.50
2023-03-29T11:44:59.046Z,96572.19
2023-03-29T11:50:24.165Z,96513.16
2023-03-29T11:55:33.863Z,96567.91
2023-03-29T12:01:02.732Z,96541.00
2023-03-29T12:06:23.371Z,96603.50
2023-03-29T12:11:36.803Z,96535.78
2023-03-29T12:16:54.178Z,96572.19
2023-03-29T12:21:59.382Z,96593.00
2023-03-29T12:27:05.084Z,96552.97
2023-03-29T12:32:25.930Z,96566.25
2023-03-29T12:37:58.923Z,96570.69
2023-03-29T12:43:38.062Z,96574.19
2023-03-29T12:49:11.861Z,96550.41
2023-03-29T12:54:26.810Z,96559.22
2023-03-29T12:59:45.259Z,96567.63
2023-03-29T13:04:54.841Z,96553.69
2023-03-29T13:10:29.096Z,96538.72
2023-03-29T13:15:36.313Z,96555.28
2023-03-29T13:21:03.424Z,96556.16
2023-03-29T13:26:20.023Z,96556.03
2023-03-29T13:31:40.701Z,96563.72
2023-03-29T13:37:07.142Z,96573.88
2023-03-29T13:42:37.898Z,96531.22
2023-03-29T13:47:54.973Z,96562.59
2023-03-29T13:53:39.887Z,96537.03
2023-03-29T13:58:46.895Z,96490.72
2023-03-29T14:09:14.847Z,96534.69
2023-03-29T14:14:22.131Z,96520.78
2023-03-29T14:19:35.456Z,96534.81
2023-03-29T14:24:44.453Z,96537.91
2023-03-29T14:29:51.794Z,96590.19
2023-03-29T14:34:54.447Z,96552.53
2023-03-29T14:39:59.402Z,96535.19
2023-03-29T14:45:09.617Z,96565.31
2023-03-29T14:50:38.426Z,96564.03
2023-03-29T14:55:41.131Z,96521.41
2023-03-29T15:06:04.403Z,96526.25
2023-03-29T15:11:20.719Z,96549.53
2023-03-29T15:16:23.453Z,96601.38
2023-03-29T15:21:32.207Z,96550.56
2023-03-29T15:26:37.875Z,96565.34
2023-03-29T15:31:42.337Z,96538.06
2023-03-29T15:36:46.766Z,96565.69
2023-03-29T15:41:52.219Z,96559.22
2023-03-29T15:47:00.345Z,96569.78
2023-03-29T15:52:03.405Z,96561.53
2023-03-29T15:57:14.041Z,96591.69
2023-03-29T16:02:17.730Z,96568.59
2023-03-29T16:07:21.166Z,96624.72
2023-03-29T16:12:23.559Z,96598.53
2023-03-29T16:17:26.857Z,96583.22
2023-03-29T16:22:29.747Z,96595.31
2023-03-29T16:27:33.226Z,96588.31
2023-03-29T16:32:36.125Z,96619.47
2023-03-29T16:37:38.724Z,96609.53
2023-03-29T16:42:41.767Z,96607.16
2023-03-29T16:47:45.202Z,96614.31
2023-03-29T16:52:52.887Z,96643.66
2023-03-29T16:57:55.312Z,96647.34
2023-03-29T17:02:57.746Z,96661.66
2023-03-29T17:08:00.396Z,96674.00
2023-03-29T17:13:03.034Z,96687.38
2023-03-29T17:18:05.406Z,96679.84
2023-03-29T17:23:09.413Z,96665.34
2023-03-29T17:28:11.972Z,96690.69
2023-03-29T17:33:14.300Z,96651.78
2023-03-29T17:38:16.835Z,96666.88
2023-03-29T17:43:19.558Z,96726.84
2023-03-29T17:48:23.949Z,96738.53
2023-03-29T17:53:26.422Z,96742.47
2023-03-29T17:58:28.715Z,96755.75
2023-03-29T18:03:30.998Z,96718.53
2023-03-29T18:08:33.833Z,96702.63
2023-03-29T18:13:36.263Z,96747.41
2023-03-29T18:18:38.942Z,96754.50
2023-03-29T18:23:44.427Z,96751.25
2023-03-29T18:28:53.318Z,96702.94
2023-03-29T18:33:58.155Z,96782.44
2023-03-29T18:39:05.999Z,96734.75
2023-03-29T18:44:08.360Z,96783.56
2023-03-29T18:49:13.661Z,96782.34
2023-03-29T18:54:16.322Z,96762.75
2023-03-29T18:59:18.930Z,96765.47
2023-03-29T19:04:21.393Z,96739.88
2023-03-29T19:09:24.043Z,96760.38
2023-03-29T19:14:26.546Z,96752.66
2023-03-29T19:19:28.888Z,96738.34
2023-03-29T19:24:31.500Z,96727.28
2023-03-29T19:29:33.913Z,96758.06
2023-03-29T19:34:36.574Z,96785.50
2023-03-29T19:39:40.265Z,96762.56
2023-03-29T19:44:42.664Z,96779.53
2023-03-29T19:49:46.792Z,96761.56
2023-03-29T19:54:49.235Z,96778.75
2023-03-29T19:59:53.643Z,96778.00
2023-03-29T20:04:58.173Z,96815.66
2023-03-29T20:10:00.660Z,96798.50
2023-03-29T20:15:03.490Z,96756.84
2023-03-29T20:20:09.720Z,96813.31
2023-03-29T20:25:12.225Z,96763.66
2023-03-29T20:30:14.831Z,96783.44
2023-03-29T20:35:17.240Z,96769.81
2023-03-29T20:40:21.098Z,96803.97
2023-03-29T20:45:23.598Z,96748.38
2023-03-29T20:50:26.813Z,96771.50
2023-03-29T20:55:33.907Z,96777.56
2023-03-29T21:00:37.973Z,96783.47
2023-03-29T21:05:40.408Z,96799.78
2023-03-29T21:10:42.725Z,96776.69
2023-03-29T21:15:46.932Z,96757.06
2023-03-29T21:20:50.056Z,96751.06
2023-03-29T21:25:52.272Z,96765.69
2023-03-29T21:30:54.898Z,96792.19
2023-03-29T21:35:57.576Z,96793.06
2023-03-29T21:41:00.908Z,96757.09
2023-03-29T21:46:03.193Z,96805.91
2023-03-29T21:51:06.061Z,96782.78
2023-03-29T21:56:09.041Z,96769.16
2023-03-29T22:01:11.700Z,96793.09
2023-03-29T22:06:15.059Z,96810.22
2023-03-29T22:11:17.626Z,96811.09
2023-03-29T22:16:20.095Z,96764.88
2023-03-29T22:21:25.115Z,96793.09
2023-03-29T22:26:30.886Z,96779.44
2023-03-29T22:31:33.449Z,96794.81
2023-03-29T22:36:37.056Z,96804.25
2023-03-29T22:41:39.684Z,96808.50
2023-03-29T22:46:42.839Z,96764.88
2023-03-29T22:51:45.030Z,96776.00
2023-03-29T22:56:47.254Z,96780.28
2023-03-29T23:01:50.316Z,96821.34
2023-03-29T23:06:53.412Z,96792.25
2023-03-29T23:11:55.993Z,96811.06
2023-03-29T23:16:58.543Z,96757.16
2023-03-29T23:22:00.852Z,96787.97
2023-03-29T23:27:05.163Z,96808.50
2023-03-29T23:32:07.855Z,96813.66
2023-03-29T23:37:10.981Z,96813.66
2023-03-29T23:42:13.304Z,96785.38
2023-03-29T23:47:15.956Z,96805.06
2023-03-29T23:52:18.413Z,96795.63
2023-03-29T23:57:21.598Z,96803.28
